createdAt,value
2022-07-26T00:00:10.022Z,20.10
2022-07-26T00:02:31.512Z,20.04
2022-07-26T00:04:52.995Z,20.16
2022-07-26T00:07:14.540Z,20.02
2022-07-26T00:09:35.967Z,20.02
2022-07-26T00:11:57.458Z,19.96
2022-07-26T00:14:18.913Z,19.92
2022-07-26T00:16:41.140Z,19.91
2022-07-26T00:19:04.213Z,20.00
2022-07-26T00:21:25.961Z,19.92
2022-07-26T00:23:47.493Z,19.82
2022-07-26T00:26:08.970Z,19.69
2022-07-26T00:28:30.434Z,19.58
2022-07-26T00:30:52.068Z,19.57
2022-07-26T00:33:13.941Z,19.56
2022-07-26T00:35:35.370Z,19.56
2022-07-26T00:37:57.662Z,19.51
2022-07-26T00:40:19.119Z,19.49
2022-07-26T00:42:40.703Z,19.34
2022-07-26T00:45:02.419Z,19.35
2022-07-26T00:47:23.912Z,19.32
2022-07-26T00:49:45.561Z,19.30
2022-07-26T00:52:08.412Z,19.25
2022-07-26T00:54:29.861Z,19.26
2022-07-26T00:56:55.172Z,19.26
2022-07-26T00:59:16.792Z,19.19
2022-07-26T01:01:38.351Z,19.13
2022-07-26T01:03:59.857Z,19.11
2022-07-26T01:06:27.127Z,19.12
2022-07-26T01:08:48.859Z,19.10
2022-07-26T01:11:10.292Z,19.01
2022-07-26T01:13:35.060Z,18.92
2022-07-26T01:15:57.091Z,18.88
2022-07-26T01:18:18.604Z,18.86
2022-07-26T01:20:40.394Z,18.81
2022-07-26T01:23:02.104Z,18.88
2022-07-26T01:25:32.765Z,18.75
2022-07-26T01:28:05.398Z,18.70
2022-07-26T01:30:26.878Z,18.63
2022-07-26T01:32:48.346Z,18.61
2022-07-26T01:35:10.463Z,18.59
2022-07-26T01:37:31.927Z,18.59
2022-07-26T01:39:53.356Z,18.54
2022-07-26T01:42:14.784Z,18.54
2022-07-26T01:44:36.249Z,18.53
2022-07-26T01:46:57.696Z,18.49
2022-07-26T01:49:19.257Z,18.48
2022-07-26T01:51:40.913Z,18.54
2022-07-26T01:54:02.929Z,18.43
2022-07-26T01:56:24.394Z,18.29
2022-07-26T01:58:45.828Z,18.26
2022-07-26T02:01:08.389Z,18.39
2022-07-26T02:03:29.890Z,18.24
2022-07-26T02:05:51.292Z,18.26
2022-07-26T02:08:13.928Z,18.20
2022-07-26T02:10:53.770Z,18.12
2022-07-26T02:13:16.847Z,18.11
2022-07-26T02:15:38.362Z,18.11
2022-07-26T02:17:59.833Z,18.19
2022-07-26T02:20:21.261Z,18.17
2022-07-26T02:22:42.699Z,18.21
2022-07-26T02:25:05.456Z,18.24
2022-07-26T02:27:27.259Z,18.33
2022-07-26T02:29:48.905Z,18.33
2022-07-26T02:32:11.148Z,18.26
2022-07-26T02:34:34.064Z,18.30
2022-07-26T02:36:55.690Z,18.29
2022-07-26T02:39:17.764Z,18.16
2022-07-26T02:41:39.271Z,18.21
2022-07-26T02:44:00.725Z,18.15
2022-07-26T02:46:22.214Z,18.16
2022-07-26T02:48:43.744Z,18.16
2022-07-26T02:51:05.317Z,18.16
2022-07-26T02:53:26.873Z,18.15
2022-07-26T02:55:48.268Z,18.18
2022-07-26T02:58:09.692Z,18.14
2022-07-26T03:00:32.145Z,18.11
2022-07-26T03:02:54.136Z,18.11
2022-07-26T03:05:16.035Z,18.06
2022-07-26T03:07:37.923Z,18.00
2022-07-26T03:09:59.690Z,17.96
2022-07-26T03:12:21.138Z,17.94
2022-07-26T03:14:42.607Z,17.91
2022-07-26T03:17:04.051Z,17.86
2022-07-26T03:19:25.480Z,17.83
2022-07-26T03:21:46.905Z,17.82
2022-07-26T03:24:08.822Z,17.91
2022-07-26T03:26:30.588Z,17.86
2022-07-26T03:28:52.877Z,17.73
2022-07-26T03:31:14.492Z,17.67
2022-07-26T03:33:36.209Z,17.63
2022-07-26T03:35:57.691Z,17.59
2022-07-26T03:38:19.147Z,17.61
2022-07-26T03:40:40.584Z,17.59
2022-07-26T03:43:02.139Z,17.58
2022-07-26T03:45:24.385Z,17.49
2022-07-26T03:47:46.453Z,17.45
2022-07-26T03:50:08.602Z,17.45
2022-07-26T03:52:30.021Z,17.44
2022-07-26T03:54:51.464Z,17.40
2022-07-26T03:57:12.872Z,17.44
2022-07-26T03:59:34.462Z,17.40
2022-07-26T04:01:55.962Z,17.38
2022-07-26T04:04:18.490Z,17.44
2022-07-26T04:06:47.572Z,17.42
2022-07-26T04:09:09.101Z,17.36
2022-07-26T04:11:30.655Z,17.36
2022-07-26T04:13:52.148Z,17.32
2022-07-26T04:16:14.366Z,17.32
2022-07-26T04:18:35.928Z,17.35
2022-07-26T04:20:57.699Z,17.30
2022-07-26T04:23:19.137Z,17.28
2022-07-26T04:25:41.812Z,17.32
2022-07-26T04:28:04.175Z,17.33
2022-07-26T04:30:25.968Z,17.32
2022-07-26T04:32:47.495Z,17.45
2022-07-26T04:35:09.433Z,17.42
2022-07-26T04:37:33.013Z,17.34
2022-07-26T04:39:55.152Z,17.25
2022-07-26T04:42:16.677Z,17.32
2022-07-26T04:44:38.947Z,17.33
2022-07-26T04:47:00.491Z,17.33
2022-07-26T04:49:22.560Z,17.39
2022-07-26T04:51:44.053Z,17.45
2022-07-26T04:54:05.772Z,17.42
2022-07-26T04:56:27.447Z,17.69
2022-07-26T04:58:48.914Z,17.72
2022-07-26T05:01:11.169Z,17.90
2022-07-26T05:03:32.990Z,17.91
2022-07-26T05:05:54.497Z,17.92
2022-07-26T05:08:16.638Z,17.99
2022-07-26T05:10:38.098Z,17.96
2022-07-26T05:12:59.643Z,18.08
2022-07-26T05:15:21.079Z,18.06
2022-07-26T05:17:43.584Z,18.12
2022-07-26T05:20:07.347Z,17.93
2022-07-26T05:22:28.835Z,17.89
2022-07-26T05:24:50.289Z,17.88
2022-07-26T05:27:11.785Z,17.94
2022-07-26T05:29:33.253Z,18.01
2022-07-26T05:31:54.717Z,18.06
2022-07-26T05:34:16.158Z,18.49
2022-07-26T05:36:37.666Z,18.63
2022-07-26T05:38:59.154Z,18.69
2022-07-26T05:41:20.690Z,18.72
2022-07-26T05:43:42.312Z,18.85
2022-07-26T05:46:07.934Z,19.00
2022-07-26T05:48:31.176Z,19.03
2022-07-26T05:50:52.728Z,19.01
2022-07-26T05:53:14.213Z,18.96
2022-07-26T05:55:35.739Z,19.18
2022-07-26T05:57:57.203Z,19.24
2022-07-26T06:00:19.174Z,19.23
2022-07-26T06:02:41.642Z,19.24
2022-07-26T06:05:03.521Z,19.26
2022-07-26T06:07:25.023Z,19.22
2022-07-26T06:09:46.633Z,19.31
2022-07-26T06:12:08.309Z,19.32
2022-07-26T06:14:29.866Z,19.31
2022-07-26T06:16:51.561Z,19.39
2022-07-26T06:19:13.582Z,19.48
2022-07-26T06:21:35.151Z,19.49
2022-07-26T06:23:56.596Z,19.49
2022-07-26T06:26:18.108Z,19.46
2022-07-26T06:28:39.892Z,19.51
2022-07-26T06:31:01.480Z,19.59
2022-07-26T06:33:23.099Z,19.65
2022-07-26T06:35:44.656Z,19.67
2022-07-26T06:38:07.198Z,19.75
2022-07-26T06:40:28.943Z,19.78
2022-07-26T06:42:50.446Z,19.81
2022-07-26T06:45:11.976Z,19.95
2022-07-26T06:47:33.906Z,19.94
2022-07-26T06:49:55.375Z,20.00
2022-07-26T06:52:16.865Z,20.09
2022-07-26T06:54:38.291Z,20.08
2022-07-26T06:56:59.737Z,20.14
2022-07-26T06:59:21.197Z,20.21
2022-07-26T07:01:57.811Z,20.30
2022-07-26T07:04:21.438Z,20.32
2022-07-26T07:06:42.962Z,20.44
2022-07-26T07:09:07.788Z,20.46
2022-07-26T07:11:30.322Z,20.52
2022-07-26T07:13:51.820Z,20.63
2022-07-26T07:16:13.401Z,20.75
2022-07-26T07:18:35.010Z,20.75
2022-07-26T07:20:56.464Z,20.79
2022-07-26T07:23:17.889Z,20.76
2022-07-26T07:25:41.337Z,20.77
2022-07-26T07:28:06.447Z,20.77
2022-07-26T07:30:28.349Z,20.79
2022-07-26T07:32:49.771Z,20.87
2022-07-26T07:35:12.712Z,20.94
2022-07-26T07:37:52.837Z,20.97
2022-07-26T07:40:15.599Z,21.02
2022-07-26T07:42:37.274Z,21.05
2022-07-26T07:44:58.744Z,21.12
2022-07-26T07:47:20.180Z,21.23
2022-07-26T07:49:41.680Z,21.30
2022-07-26T07:52:03.743Z,21.37
2022-07-26T07:54:25.262Z,21.52
2022-07-26T07:56:46.712Z,21.60
2022-07-26T07:59:08.976Z,21.67
2022-07-26T08:01:40.184Z,21.65
2022-07-26T08:04:02.676Z,21.73
2022-07-26T08:06:24.202Z,21.73
2022-07-26T08:08:45.750Z,21.81
2022-07-26T08:11:10.397Z,21.81
2022-07-26T08:13:34.040Z,21.94
2022-07-26T08:15:56.040Z,21.91
2022-07-26T08:18:18.005Z,22.01
2022-07-26T08:20:42.565Z,22.17
2022-07-26T08:23:04.088Z,22.16
2022-07-26T08:25:25.576Z,22.23
2022-07-26T08:28:00.540Z,22.26
2022-07-26T08:30:24.544Z,22.21
2022-07-26T08:32:45.978Z,22.23
2022-07-26T08:35:17.697Z,22.36
2022-07-26T08:37:41.186Z,22.43
2022-07-26T08:40:03.312Z,22.55
2022-07-26T08:42:24.839Z,22.65
2022-07-26T08:44:48.653Z,22.75
2022-07-26T08:47:12.282Z,22.77
2022-07-26T08:49:33.791Z,23.01
2022-07-26T08:51:56.935Z,22.99
2022-07-26T08:54:18.443Z,23.05
2022-07-26T08:56:52.179Z,23.15
2022-07-26T08:59:20.807Z,23.23
2022-07-26T09:01:58.034Z,23.31
2022-07-26T09:04:34.532Z,23.53
2022-07-26T09:07:05.472Z,23.48
2022-07-26T09:09:28.023Z,23.54
2022-07-26T09:11:49.471Z,23.72
2022-07-26T09:14:10.936Z,23.90
2022-07-26T09:16:38.792Z,24.15
2022-07-26T09:19:19.058Z,24.42
2022-07-26T09:21:40.566Z,24.72
2022-07-26T09:24:02.413Z,24.91
2022-07-26T09:26:24.226Z,25.07
2022-07-26T09:28:45.687Z,25.14
2022-07-26T09:31:07.174Z,24.85
2022-07-26T09:33:48.598Z,24.79
2022-07-26T09:36:10.269Z,24.83
2022-07-26T09:38:41.631Z,24.85
2022-07-26T09:41:03.107Z,25.03
2022-07-26T09:43:24.963Z,25.21
2022-07-26T09:45:46.472Z,25.17
2022-07-26T09:48:11.544Z,25.04
2022-07-26T09:50:33.612Z,25.02
2022-07-26T09:53:10.433Z,24.92
2022-07-26T09:55:40.873Z,24.78
2022-07-26T09:58:06.520Z,24.78
2022-07-26T10:00:27.992Z,24.83
2022-07-26T10:02:49.505Z,24.98
2022-07-26T10:05:11.064Z,24.95
2022-07-26T10:07:32.646Z,25.14
2022-07-26T10:10:08.750Z,25.38
2022-07-26T10:12:32.808Z,25.66
2022-07-26T10:14:55.219Z,26.08
2022-07-26T10:17:29.106Z,26.34
2022-07-26T10:19:55.436Z,26.67
2022-07-26T10:22:30.668Z,26.85
2022-07-26T10:24:57.929Z,27.04
2022-07-26T10:27:43.203Z,27.38
2022-07-26T10:30:19.769Z,27.14
2022-07-26T10:32:46.180Z,26.97
2022-07-26T10:35:41.566Z,26.87
2022-07-26T10:38:05.838Z,26.70
2022-07-26T10:40:30.249Z,26.41
2022-07-26T10:42:51.752Z,26.28
2022-07-26T10:45:18.774Z,26.09
2022-07-26T10:48:08.860Z,25.68
2022-07-26T10:50:33.818Z,25.66
2022-07-26T10:52:59.237Z,25.49
2022-07-26T10:55:20.731Z,25.40
2022-07-26T10:57:43.474Z,25.42
2022-07-26T11:00:16.059Z,25.48
2022-07-26T11:02:38.048Z,25.45
2022-07-26T11:05:13.198Z,25.66
2022-07-26T11:08:10.698Z,25.67
2022-07-26T11:10:35.294Z,25.74
2022-07-26T11:13:14.358Z,25.62
2022-07-26T11:15:41.946Z,25.59
2022-07-26T11:18:12.001Z,25.65
2022-07-26T11:20:33.483Z,25.64
2022-07-26T11:22:54.951Z,25.53
2022-07-26T11:25:21.369Z,25.54
2022-07-26T11:28:02.647Z,25.64
2022-07-26T11:30:29.513Z,25.72
2022-07-26T11:32:56.080Z,25.90
2022-07-26T11:35:17.518Z,25.91
2022-07-26T11:37:38.956Z,25.94
2022-07-26T11:40:00.443Z,25.99
2022-07-26T11:42:22.230Z,26.06
2022-07-26T11:44:45.069Z,26.06
2022-07-26T11:47:15.118Z,25.98
2022-07-26T11:49:51.896Z,25.98
2022-07-26T11:52:20.781Z,26.15
2022-07-26T11:54:50.853Z,26.44
2022-07-26T11:57:12.777Z,26.35
2022-07-26T11:59:36.342Z,26.32
2022-07-26T12:01:58.918Z,26.38
2022-07-26T12:04:23.787Z,26.29
2022-07-26T12:06:45.387Z,26.41
2022-07-26T12:09:06.959Z,26.43
2022-07-26T12:11:38.617Z,26.31
2022-07-26T12:14:02.443Z,26.32
2022-07-26T12:16:44.662Z,26.40
2022-07-26T12:19:08.193Z,26.33
2022-07-26T12:21:40.831Z,26.41
2022-07-26T12:24:02.247Z,26.34
2022-07-26T12:26:26.634Z,26.33
2022-07-26T12:28:48.226Z,26.20
2022-07-26T12:31:23.701Z,26.19
2022-07-26T12:33:49.233Z,26.06
2022-07-26T12:36:27.963Z,25.99
2022-07-26T12:38:52.499Z,25.75
2022-07-26T12:41:40.281Z,25.63
2022-07-26T12:44:02.040Z,25.36
2022-07-26T12:46:23.519Z,25.37
2022-07-26T12:48:46.853Z,25.32
2022-07-26T12:51:08.433Z,25.39
2022-07-26T12:53:29.871Z,25.31
2022-07-26T12:55:51.347Z,25.48
2022-07-26T12:58:12.807Z,25.50
2022-07-26T13:00:34.322Z,25.51
2022-07-26T13:02:56.695Z,25.63
2022-07-26T13:05:18.253Z,25.71
2022-07-26T13:07:40.200Z,25.74
2022-07-26T13:10:31.889Z,25.77
2022-07-26T13:12:43.356Z,26.01
2022-07-26T13:15:05.952Z,26.00
2022-07-26T13:17:27.545Z,26.15
2022-07-26T13:19:49.023Z,26.36
2022-07-26T13:22:10.807Z,26.48
2022-07-26T13:24:34.506Z,26.77
2022-07-26T13:26:57.386Z,26.83
2022-07-26T13:29:22.281Z,26.76
2022-07-26T13:31:43.903Z,26.73
2022-07-26T13:34:05.539Z,26.70
2022-07-26T13:36:27.083Z,26.71
2022-07-26T13:38:48.507Z,26.87
2022-07-26T13:41:10.278Z,27.02
2022-07-26T13:43:31.875Z,27.13
2022-07-26T13:45:53.435Z,27.26
2022-07-26T13:48:14.902Z,27.53
2022-07-26T13:50:36.346Z,27.59
2022-07-26T13:52:57.808Z,27.69
2022-07-26T13:55:20.730Z,27.52
2022-07-26T13:57:55.396Z,27.43
2022-07-26T14:00:18.916Z,27.61
2022-07-26T14:02:40.501Z,27.81
2022-07-26T14:05:01.988Z,28.09
2022-07-26T14:23:18.822Z,29.45
2022-07-26T14:25:40.603Z,29.42
2022-07-26T14:28:02.225Z,29.51
2022-07-26T14:30:24.058Z,29.42
2022-07-26T14:32:45.800Z,29.28
2022-07-26T14:35:07.868Z,29.30
2022-07-26T14:37:41.852Z,29.22
2022-07-26T14:40:07.384Z,28.81
2022-07-26T14:42:28.945Z,28.50
2022-07-26T14:44:50.405Z,28.51
2022-07-26T14:47:11.870Z,28.31
2022-07-26T14:49:33.546Z,28.01
2022-07-26T14:51:55.265Z,27.84
2022-07-26T14:54:17.903Z,27.75
2022-07-26T14:56:39.457Z,28.08
2022-07-26T14:59:01.009Z,29.18
2022-07-26T15:01:22.657Z,30.43
2022-07-26T15:03:44.323Z,30.34
2022-07-26T15:06:05.829Z,30.74
2022-07-26T15:08:27.382Z,30.94
2022-07-26T15:10:50.438Z,30.77
2022-07-26T15:13:12.850Z,30.57
2022-07-26T15:15:34.527Z,30.11
2022-07-26T15:17:56.766Z,29.63
2022-07-26T15:20:19.229Z,29.20
2022-07-26T15:22:40.851Z,28.88
2022-07-26T15:25:02.322Z,28.62
2022-07-26T15:27:23.774Z,28.38
2022-07-26T15:29:46.883Z,27.99
2022-07-26T15:32:08.417Z,27.52
2022-07-26T15:34:29.945Z,27.36
2022-07-26T15:36:51.495Z,26.97
2022-07-26T15:39:17.501Z,26.82
2022-07-26T15:41:39.780Z,26.32
2022-07-26T15:44:01.301Z,25.75
2022-07-26T15:46:22.860Z,25.39
2022-07-26T15:48:45.819Z,25.11
2022-07-26T15:51:07.378Z,24.80
2022-07-26T15:53:30.849Z,24.50
2022-07-26T15:55:52.297Z,24.28
2022-07-26T15:58:13.791Z,24.16
2022-07-26T16:00:35.314Z,24.04
2022-07-26T16:02:56.778Z,24.11
2022-07-26T16:05:18.328Z,24.10
2022-07-26T16:07:43.993Z,24.28
2022-07-26T16:10:05.937Z,24.26
2022-07-26T16:12:28.495Z,24.47
2022-07-26T16:14:50.069Z,24.56
2022-07-26T16:17:11.542Z,24.69
2022-07-26T16:19:33.022Z,24.79
2022-07-26T16:21:54.617Z,24.79
2022-07-26T16:24:16.087Z,24.87
2022-07-26T16:26:37.597Z,24.79
2022-07-26T16:29:00.498Z,24.75
2022-07-26T16:31:22.018Z,24.86
2022-07-26T16:33:46.329Z,24.65
2022-07-26T16:36:08.227Z,24.57
2022-07-26T16:38:29.799Z,24.36
2022-07-26T16:40:51.293Z,24.15
2022-07-26T16:43:12.935Z,23.98
2022-07-26T16:45:34.403Z,23.85
2022-07-26T16:47:59.926Z,23.75
2022-07-26T16:50:27.000Z,23.47
2022-07-26T16:52:49.575Z,23.34
2022-07-26T16:55:11.353Z,23.25
2022-07-26T16:57:32.826Z,23.13
2022-07-26T16:59:54.284Z,23.02
2022-07-26T17:02:15.774Z,22.93
2022-07-26T17:04:38.017Z,22.98
2022-07-26T17:07:23.399Z,22.87
2022-07-26T17:09:40.919Z,22.90
2022-07-26T17:12:06.359Z,22.86
2022-07-26T17:14:28.293Z,22.83
2022-07-26T17:16:50.170Z,22.82
2022-07-26T17:19:12.061Z,22.91
2022-07-26T17:21:33.824Z,23.03
2022-07-26T17:23:55.329Z,23.21
2022-07-26T17:26:17.775Z,23.38
2022-07-26T17:28:39.245Z,23.43
2022-07-26T17:31:00.706Z,23.64
2022-07-26T17:33:22.288Z,23.74
2022-07-26T17:35:43.785Z,24.07
2022-07-26T17:38:05.265Z,24.30
2022-07-26T17:40:26.926Z,24.58
2022-07-26T17:42:48.873Z,24.74
2022-07-26T17:45:10.700Z,24.91
2022-07-26T17:47:32.591Z,24.89
2022-07-26T17:49:54.195Z,24.89
2022-07-26T17:52:15.755Z,24.81
2022-07-26T17:54:37.251Z,24.83
2022-07-26T17:56:58.718Z,24.94
2022-07-26T17:59:22.108Z,24.74
2022-07-26T18:01:53.856Z,24.65
2022-07-26T18:04:17.589Z,24.50
2022-07-26T18:06:39.116Z,24.40
2022-07-26T18:09:00.853Z,24.33
2022-07-26T18:11:22.312Z,24.16
2022-07-26T18:13:43.908Z,23.96
2022-07-26T18:16:06.502Z,23.75
2022-07-26T18:18:28.169Z,23.73
2022-07-26T18:20:50.135Z,23.62
2022-07-26T18:23:11.698Z,23.38
2022-07-26T18:25:33.343Z,23.45
2022-07-26T18:27:55.123Z,23.25
2022-07-26T18:30:17.022Z,23.13
2022-07-26T18:32:38.490Z,23.02
2022-07-26T18:35:01.050Z,23.03
2022-07-26T18:37:23.705Z,22.91
2022-07-26T18:39:45.210Z,22.92
2022-07-26T18:42:07.605Z,22.67
2022-07-26T18:44:29.084Z,22.66
2022-07-26T18:46:52.456Z,22.59
2022-07-26T18:49:19.866Z,22.51
2022-07-26T18:51:41.811Z,22.44
2022-07-26T18:54:03.331Z,22.31
2022-07-26T18:56:24.859Z,22.28
2022-07-26T18:58:46.631Z,22.24
2022-07-26T19:01:08.093Z,22.25
2022-07-26T19:03:34.655Z,22.23
2022-07-26T19:05:56.191Z,22.22
2022-07-26T19:08:17.725Z,22.22
2022-07-26T19:10:39.307Z,22.15
2022-07-26T19:13:00.858Z,22.11
2022-07-26T19:15:22.583Z,22.05
2022-07-26T19:17:44.581Z,21.96
2022-07-26T19:20:07.124Z,21.93
2022-07-26T19:22:30.364Z,21.95
2022-07-26T19:24:52.570Z,21.90
2022-07-26T19:27:15.297Z,21.90
2022-07-26T19:29:37.683Z,21.87
2022-07-26T19:31:59.143Z,21.84
2022-07-26T19:34:20.613Z,21.79
2022-07-26T19:36:42.214Z,21.75
2022-07-26T19:39:04.335Z,21.73
2022-07-26T19:41:25.793Z,21.64
2022-07-26T19:43:47.297Z,21.54
2022-07-26T19:46:08.821Z,21.43
2022-07-26T19:48:30.437Z,21.35
2022-07-26T19:50:51.942Z,21.34
2022-07-26T19:53:13.430Z,21.30
2022-07-26T19:55:38.216Z,21.30
2022-07-26T19:57:59.681Z,21.26
2022-07-26T20:00:22.503Z,21.15
2022-07-26T20:02:44.083Z,21.16
2022-07-26T20:05:06.681Z,21.14
2022-07-26T20:07:28.167Z,21.13
2022-07-26T20:09:50.349Z,21.05
2022-07-26T20:12:12.084Z,21.04
2022-07-26T20:14:33.660Z,20.97
2022-07-26T20:16:56.922Z,20.96
2022-07-26T20:19:18.500Z,20.94
2022-07-26T20:21:39.970Z,20.90
2022-07-26T20:24:01.493Z,20.87
2022-07-26T20:26:23.044Z,20.97
2022-07-26T20:28:44.705Z,20.83
2022-07-26T20:31:06.315Z,20.68
2022-07-26T20:33:28.089Z,20.62
2022-07-26T20:35:54.698Z,20.50
2022-07-26T20:38:18.403Z,20.47
2022-07-26T20:40:40.386Z,20.45
2022-07-26T20:43:02.011Z,20.39
2022-07-26T20:45:24.016Z,20.37
2022-07-26T20:47:45.471Z,20.36
2022-07-26T20:50:16.149Z,20.30
2022-07-26T20:52:38.024Z,20.27
2022-07-26T20:55:00.344Z,20.19
2022-07-26T20:57:23.511Z,20.14
2022-07-26T20:59:45.001Z,20.14
2022-07-26T21:02:06.721Z,20.08
2022-07-26T21:04:28.240Z,20.06
2022-07-26T21:06:52.771Z,20.03
2022-07-26T21:09:14.523Z,20.08
2022-07-26T21:11:36.109Z,20.02
2022-07-26T21:13:58.068Z,19.99
2022-07-26T21:16:19.664Z,20.02
2022-07-26T21:18:41.310Z,20.05
2022-07-26T21:21:02.822Z,20.05
2022-07-26T21:23:24.453Z,20.16
2022-07-26T21:25:45.941Z,20.16
2022-07-26T21:28:07.389Z,20.12
2022-07-26T21:30:28.881Z,20.18
2022-07-26T21:32:50.380Z,20.20
2022-07-26T21:35:11.860Z,20.12
2022-07-26T21:37:33.378Z,20.04
2022-07-26T21:39:54.836Z,19.98
2022-07-26T21:42:16.355Z,20.01
2022-07-26T21:44:37.830Z,19.94
2022-07-26T21:46:59.342Z,19.91
2022-07-26T21:49:21.511Z,19.97
2022-07-26T21:51:43.030Z,19.96
2022-07-26T21:54:04.547Z,19.92
2022-07-26T21:56:26.146Z,19.90
2022-07-26T21:59:20.657Z,19.94
2022-07-26T22:01:42.875Z,19.93
2022-07-26T22:04:04.693Z,19.90
2022-07-26T22:06:26.155Z,19.96
2022-07-26T22:08:47.652Z,20.08
2022-07-26T22:11:09.271Z,19.93
2022-07-26T22:13:31.465Z,19.85
2022-07-26T22:15:52.948Z,19.96
2022-07-26T22:18:14.443Z,19.97
2022-07-26T22:20:35.961Z,19.83
2022-07-26T22:22:59.994Z,19.78
2022-07-26T22:25:21.474Z,19.78
2022-07-26T22:27:42.903Z,19.79
2022-07-26T22:30:05.568Z,19.81
2022-07-26T22:32:27.393Z,19.78
2022-07-26T22:34:48.833Z,19.76
2022-07-26T22:37:10.260Z,19.78
2022-07-26T22:39:31.722Z,19.79
2022-07-26T22:42:14.406Z,19.76
2022-07-26T22:44:34.931Z,19.68
2022-07-26T22:46:56.365Z,19.70
2022-07-26T22:49:17.845Z,19.69
2022-07-26T22:51:39.307Z,19.65
2022-07-26T22:54:00.772Z,19.63
2022-07-26T22:56:22.242Z,19.67
2022-07-26T22:58:43.653Z,19.61
2022-07-26T23:01:05.570Z,19.50
2022-07-26T23:03:27.163Z,19.47
2022-07-26T23:05:50.671Z,19.52
2022-07-26T23:08:36.754Z,19.56
2022-07-26T23:10:55.888Z,19.54
2022-07-26T23:13:17.419Z,19.51
2022-07-26T23:15:38.867Z,19.56
2022-07-26T23:18:00.344Z,19.52
2022-07-26T23:20:21.901Z,19.53
2022-07-26T23:22:43.396Z,19.43
2022-07-26T23:25:05.964Z,19.45
2022-07-26T23:27:27.427Z,19.44
2022-07-26T23:29:50.044Z,19.43
2022-07-26T23:32:11.548Z,19.39
2022-07-26T23:34:33.186Z,19.39
2022-07-26T23:36:54.629Z,19.38
2022-07-26T23:39:16.132Z,19.33
2022-07-26T23:41:37.674Z,19.31
2022-07-26T23:43:59.155Z,19.24
2022-07-26T23:46:21.310Z,19.22
2022-07-26T23:48:42.872Z,19.16
2022-07-26T23:51:04.388Z,19.23
2022-07-26T23:53:26.961Z,19.16
2022-07-26T23:55:49.112Z,19.07
2022-07-26T23:58:11.906Z,19.08
